Time;durP1;ratioP1;P1;durP2;ratioP2;P2;SDS_P1;SDS_P2;PMS_P1;PMS_P2;Temp;Humidity;BMP_temperature;BMP_pressure;BME280_temperature;BME280_humidity;BME280_pressure;Samples;Min_cycle;Max_cycle;Signal;HPM_P1;HPM_P2
2024/04/05 00:00:13;;;;;;;18.60;9.80;;;;;;;8.17;46.11;100306.24;107957;1254;70322;-67
2024/04/05 00:02:46;;;;;;;15.20;8.00;;;;;;;8.45;45.57;100306.11;107911;1254;72683;-67
2024/04/05 00:05:13;;;;;;;20.10;10.50;;;;;;;8.59;45.14;100312.22;107875;1254;61221;-66
2024/04/05 00:07:40;;;;;;;17.20;9.10;;;;;;;8.50;45.60;100315.61;107975;1254;61468;-67
2024/04/05 00:10:08;;;;;;;19.60;10.10;;;;;;;8.57;45.47;100315.42;108000;1254;74570;-67
2024/04/05 00:12:35;;;;;;;19.20;10.20;;;;;;;8.52;45.55;100319.74;107963;1254;68917;-66
2024/04/05 00:15:09;;;;;;;15.60;8.80;;;;;;;8.57;45.70;100323.11;107668;1254;71526;-67
2024/04/05 00:17:36;;;;;;;23.50;10.80;;;;;;;8.60;45.64;100320.06;108007;1254;61221;-67
2024/04/05 00:20:05;;;;;;;21.80;10.90;;;;;;;8.66;45.59;100319.22;107942;1254;60087;-65
2024/04/05 00:22:32;;;;;;;21.30;10.10;;;;;;;8.65;45.61;100323.80;107976;1254;72644;-67
2024/04/05 00:25:00;;;;;;;20.10;10.00;;;;;;;8.52;45.92;100324.12;107940;1254;70685;-66
2024/04/05 00:27:28;;;;;;;22.30;10.80;;;;;;;8.64;45.59;100318.58;107933;1254;72725;-66
2024/04/05 00:29:55;;;;;;;21.70;10.80;;;;;;;8.53;45.67;100317.98;108016;1254;62310;-67
2024/04/05 00:32:23;;;;;;;21.10;12.00;;;;;;;8.64;45.50;100316.48;107936;1254;61144;-67
2024/04/05 00:34:50;;;;;;;22.90;11.10;;;;;;;8.75;45.25;100315.32;108001;1254;74587;-66
2024/04/05 00:37:17;;;;;;;23.10;11.60;;;;;;;8.75;45.28;100315.66;107977;1254;69272;-67
2024/04/05 00:39:45;;;;;;;22.90;11.30;;;;;;;8.77;45.33;100316.32;108042;1254;73252;-67
2024/04/05 00:42:12;;;;;;;22.70;10.70;;;;;;;8.65;45.55;100320.98;107989;1254;60901;-67
2024/04/05 00:44:39;;;;;;;24.30;11.30;;;;;;;8.66;45.64;100321.69;108050;1254;61148;-67
2024/04/05 00:47:06;;;;;;;26.60;11.10;;;;;;;8.72;45.50;100319.76;108039;1254;73339;-67
2024/04/05 00:49:34;;;;;;;20.40;11.10;;;;;;;8.70;45.58;100315.61;108066;1254;69953;-68
2024/04/05 00:52:03;;;;;;;20.10;10.10;;;;;;;8.68;45.73;100316.55;107936;1254;71409;-67
2024/04/05 00:54:30;;;;;;;26.50;12.00;;;;;;;8.72;45.69;100311.02;107942;1254;60857;-67
2024/04/05 00:56:58;;;;;;;23.30;11.10;;;;;;;8.81;45.53;100311.83;108023;1254;61356;-66
2024/04/05 00:59:26;;;;;;;20.10;10.30;;;;;;;8.78;45.62;100314.52;107798;1253;74665;-67
2024/04/05 01:01:53;;;;;;;26.80;12.30;;;;;;;8.76;45.64;100313.02;108078;1254;69153;-67
2024/04/05 01:04:21;;;;;;;21.40;11.60;;;;;;;8.77;45.57;100314.04;108051;1254;72509;-66
2024/04/05 01:06:48;;;;;;;24.60;9.90;;;;;;;8.72;45.70;100315.40;107908;1254;61130;-67
2024/04/05 01:09:15;;;;;;;20.30;10.00;;;;;;;8.71;45.85;100314.36;108124;1253;61188;-66
2024/04/05 01:11:42;;;;;;;19.90;9.20;;;;;;;8.66;45.77;100314.67;108122;1254;73363;-67
2024/04/05 01:14:10;;;;;;;19.80;10.40;;;;;;;8.59;45.98;100317.30;108076;1254;70268;-67
2024/04/05 01:16:37;;;;;;;23.70;10.70;;;;;;;8.67;45.83;100321.13;108050;1258;71693;-67
2024/04/05 01:19:05;;;;;;;15.10;8.20;;;;;;;8.84;45.54;100319.78;108120;1257;61129;-67
2024/04/05 01:21:32;;;;;;;22.40;11.50;;;;;;;8.83;45.68;100323.15;107955;1254;61102;-67
2024/04/05 01:24:00;;;;;;;21.40;10.90;;;;;;;8.87;45.51;100321.10;107899;1254;73507;-66
2024/04/05 01:26:29;;;;;;;25.10;11.30;;;;;;;8.85;45.49;100323.28;107984;1259;69711;-66
2024/04/05 01:28:56;;;;;;;22.00;10.60;;;;;;;8.72;45.58;100323.63;108013;1254;72416;-67
2024/04/05 01:31:23;;;;;;;22.30;10.50;;;;;;;8.80;45.39;100327.42;107988;1253;61112;-66
2024/04/05 01:33:51;;;;;;;18.90;11.10;;;;;;;8.78;45.38;100330.27;107989;1254;61180;-68
2024/04/05 01:36:18;;;;;;;23.20;10.60;;;;;;;8.75;45.48;100328.98;108006;1254;74548;-67
2024/04/05 01:38:45;;;;;;;21.90;11.00;;;;;;;8.77;45.35;100327.17;107990;1254;70064;-67
2024/04/05 01:41:13;;;;;;;20.90;10.50;;;;;;;8.84;45.08;100326.62;107977;1254;71349;-66
2024/04/05 01:43:40;;;;;;;22.40;11.00;;;;;;;8.70;45.15;100327.36;107996;1254;61246;-66
2024/04/05 01:46:07;;;;;;;19.50;9.30;;;;;;;8.80;45.05;100324.98;107999;1254;60587;-67
2024/04/05 01:51:03;;;;;;;17.90;10.00;;;;;;;6.17;50.95;100342.05;104845;1293;601040;-67
2024/04/05 01:53:30;;;;;;;25.20;11.80;;;;;;;7.02;48.94;100339.84;107315;1266;59709;-65
2024/04/05 01:56:01;;;;;;;24.50;11.50;;;;;;;7.20;48.44;100339.84;107310;1263;59530;-67
2024/04/05 01:58:30;;;;;;;18.90;9.20;;;;;;;7.14;48.48;100346.77;107286;1263;72203;-67
2024/04/05 02:01:04;;;;;;;21.10;9.90;;;;;;;7.19;48.40;100352.26;107314;1263;69970;-64
2024/04/05 02:03:31;;;;;;;21.40;9.30;;;;;;;7.26;48.40;100350.02;107341;1260;181476;-66
2024/04/05 02:05:58;;;;;;;18.10;9.90;;;;;;;7.24;48.30;100345.52;108088;1253;60841;-67
2024/04/05 02:08:26;;;;;;;27.60;12.10;;;;;;;7.22;48.28;100345.73;108127;1252;59586;-64
2024/04/05 02:10:53;;;;;;;15.40;8.60;;;;;;;6.94;48.67;100352.55;108035;1253;72970;-67
2024/04/05 02:13:20;;;;;;;28.10;11.30;;;;;;;6.82;48.92;100354.88;108248;1253;70328;-66
2024/04/05 02:15:48;;;;;;;20.90;10.20;;;;;;;6.80;48.89;100356.48;108000;1253;71180;-65
2024/04/05 02:18:15;;;;;;;21.20;10.30;;;;;;;6.76;49.01;100357.77;108077;1253;60449;-67
2024/04/05 02:20:51;;;;;;;23.60;11.00;;;;;;;6.70;49.31;100359.27;108096;1252;60000;-67
2024/04/05 02:23:18;;;;;;;25.50;11.10;;;;;;;6.73;48.88;100359.21;108060;1256;73883;-67
2024/04/05 02:25:46;;;;;;;22.10;11.50;;;;;;;6.64;49.21;100353.44;108083;1254;70324;-67
2024/04/05 02:28:13;;;;;;;22.40;11.30;;;;;;;6.58;48.95;100357.73;108198;1254;71318;-67
2024/04/05 02:30:40;;;;;;;16.80;9.00;;;;;;;6.48;49.52;100356.50;108099;1253;61725;-66
2024/04/05 02:33:07;;;;;;;22.60;11.30;;;;;;;6.49;49.50;100355.96;108034;1253;61048;-66
2024/04/05 02:35:35;;;;;;;19.10;10.20;;;;;;;6.49;49.63;100360.51;108146;1253;72614;-66
2024/04/05 02:38:02;;;;;;;23.30;11.80;;;;;;;6.38;50.09;100360.67;108101;1254;70480;-65
2024/04/05 02:40:30;;;;;;;25.80;12.60;;;;;;;6.44;49.73;100366.33;108044;1254;72731;-66
2024/04/05 02:42:58;;;;;;;24.90;12.00;;;;;;;6.43;49.72;100367.91;108011;1256;60676;-67
2024/04/05 02:45:26;;;;;;;22.90;11.10;;;;;;;6.25;49.83;100369.59;108065;1259;60404;-66
2024/04/05 02:47:53;;;;;;;21.30;11.60;;;;;;;6.31;49.70;100369.33;107999;1253;74095;-65
2024/04/05 02:50:21;;;;;;;20.60;10.50;;;;;;;6.35;49.55;100372.75;107789;1253;70445;-67
2024/04/05 02:52:48;;;;;;;26.90;12.60;;;;;;;6.31;49.60;100375.78;108091;1253;71698;-67
2024/04/05 02:55:15;;;;;;;25.60;10.40;;;;;;;6.35;49.75;100382.52;108079;1253;61953;-66
2024/04/05 02:57:44;;;;;;;25.30;10.90;;;;;;;6.15;49.93;100386.84;108088;1253;60401;-67
2024/04/05 03:00:13;;;;;;;27.10;11.80;;;;;;;6.10;49.97;100383.77;108165;1253;71690;-67
2024/04/05 03:02:40;;;;;;;19.10;10.40;;;;;;;6.27;49.68;100382.13;107957;1254;69984;-66
2024/04/05 03:05:08;;;;;;;27.40;12.10;;;;;;;6.31;49.32;100385.90;108010;1254;72597;-69
2024/04/05 03:07:35;;;;;;;19.90;11.40;;;;;;;6.22;49.42;100389.70;108034;1254;61846;-68
2024/04/05 03:10:02;;;;;;;23.40;11.30;;;;;;;6.20;49.62;100394.45;108004;1253;60391;-67
2024/04/05 03:12:30;;;;;;;20.50;11.50;;;;;;;6.05;49.62;100397.96;108018;1253;72653;-69
2024/04/05 03:14:57;;;;;;;21.50;10.90;;;;;;;5.97;49.90;100401.56;107975;1254;69610;-68
2024/04/05 03:17:25;;;;;;;24.40;10.70;;;;;;;5.96;49.86;100398.09;107958;1253;71372;-68
2024/04/05 03:19:53;;;;;;;19.50;9.80;;;;;;;5.98;49.57;100399.63;107957;1253;61704;-68
2024/04/05 03:22:20;;;;;;;18.60;9.60;;;;;;;5.92;49.72;100398.99;108004;1253;60877;-67
2024/04/05 03:24:47;;;;;;;23.40;11.80;;;;;;;5.83;49.99;100401.89;108076;1254;75809;-67
2024/04/05 03:27:15;;;;;;;20.90;11.60;;;;;;;5.74;50.05;100402.88;107985;1253;69586;-67
2024/04/05 03:29:42;;;;;;;25.00;12.70;;;;;;;5.79;50.03;100404.39;107889;1253;71401;-67
2024/04/05 03:32:10;;;;;;;29.60;13.80;;;;;;;5.93;49.53;100393.93;107981;1253;63477;-67
2024/04/05 03:34:38;;;;;;;26.60;12.20;;;;;;;5.95;49.74;100385.90;108017;1253;60380;-67
2024/04/05 03:37:05;;;;;;;25.70;12.40;;;;;;;5.89;49.82;100378.64;107923;1253;71983;-67
2024/04/05 03:39:33;;;;;;;26.50;13.20;;;;;;;5.97;49.85;100380.80;107764;1253;69448;-68
2024/04/05 03:42:01;;;;;;;28.20;13.20;;;;;;;6.02;49.90;100382.14;107916;1253;71398;-67
2024/04/05 03:44:29;;;;;;;35.50;14.70;;;;;;;5.98;49.88;100379.59;107906;1253;61259;-66
2024/04/05 03:46:56;;;;;;;31.40;14.70;;;;;;;5.99;49.96;100378.87;108021;1253;60057;-67
2024/04/05 03:49:25;;;;;;;35.50;17.00;;;;;;;5.96;50.21;100382.05;108029;1253;73838;-67
2024/04/05 03:51:52;;;;;;;34.80;16.10;;;;;;;6.03;50.29;100383.86;107924;1253;69938;-67
2024/04/05 03:54:19;;;;;;;38.50;17.30;;;;;;;6.07;50.33;100387.83;107911;1256;71906;-67
2024/04/05 03:56:47;;;;;;;36.50;17.50;;;;;;;6.07;50.54;100389.73;107902;1253;61726;-68
2024/04/05 03:59:15;;;;;;;27.70;14.40;;;;;;;5.99;50.60;100394.39;107856;1253;60539;-68
2024/04/05 04:01:43;;;;;;;33.10;16.00;;;;;;;6.04;50.83;100400.23;107901;1253;72561;-68
2024/04/05 04:04:10;;;;;;;38.90;17.90;;;;;;;6.09;50.71;100402.61;107910;1253;68180;-67
2024/04/05 04:06:37;;;;;;;35.80;16.80;;;;;;;6.09;50.74;100405.21;107912;1253;72822;-68
2024/04/05 04:09:04;;;;;;;33.40;18.30;;;;;;;6.12;50.89;100405.19;107969;1254;61691;-65
2024/04/05 04:11:32;;;;;;;36.40;17.30;;;;;;;6.16;50.93;100405.48;108035;1253;60453;-67
2024/04/05 04:14:00;;;;;;;37.60;18.00;;;;;;;6.18;51.03;100403.36;107973;1253;72656;-65
2024/04/05 04:16:27;;;;;;;36.40;17.30;;;;;;;6.46;51.68;100406.60;107951;1253;68834;-68
2024/04/05 04:18:55;;;;;;;31.30;15.20;;;;;;;7.32;52.42;100407.69;107915;1253;72774;-66
2024/04/05 04:21:25;;;;;;;30.00;16.40;;;;;;;8.32;52.05;100406.48;107952;1254;60518;-66
2024/04/05 04:23:52;;;;;;;26.90;14.90;;;;;;;9.23;51.29;100408.23;107968;1253;60354;-67
2024/04/05 04:26:20;;;;;;;35.50;16.70;;;;;;;10.34;49.61;100414.83;108029;1253;73780;-66
2024/04/05 04:28:48;;;;;;;34.80;16.40;;;;;;;11.26;47.90;100409.31;107943;1253;68718;-66
2024/04/05 04:31:22;;;;;;;30.20;15.70;;;;;;;12.11;46.27;100408.84;107967;1256;71273;-67
2024/04/05 04:33:50;;;;;;;30.50;15.90;;;;;;;12.95;44.05;100407.02;107894;1254;60888;-67
2024/04/05 04:36:21;;;;;;;29.90;15.90;;;;;;;13.52;42.01;100411.64;107990;1253;60246;-67
2024/04/05 04:38:48;;;;;;;;;;;;;;;14.07;40.28;100415.45;108021;1253;72587;-64
2024/04/05 04:41:16;;;;;;;37.30;17.90;;;;;;;14.54;39.53;100415.23;108084;1253;68843;-69
2024/04/05 04:43:43;;;;;;;37.80;17.00;;;;;;;15.00;38.45;100412.59;107968;1253;72691;-69
2024/04/05 04:46:11;;;;;;;50.60;24.70;;;;;;;15.44;37.31;100406.05;107958;1253;60874;-69
2024/04/05 04:48:38;;;;;;;62.60;29.30;;;;;;;15.76;36.77;100407.55;108058;1253;60411;-68
2024/04/05 04:51:06;;;;;;;60.40;29.30;;;;;;;16.15;36.10;100408.80;107998;1253;73896;-68
2024/04/05 04:53:33;;;;;;;66.00;30.80;;;;;;;16.65;35.81;100413.57;107977;1259;70097;-68
2024/04/05 04:56:00;;;;;;;66.30;30.20;;;;;;;17.35;35.07;100417.61;107988;1256;71197;-69
2024/04/05 04:58:33;;;;;;;55.20;28.10;;;;;;;17.89;33.94;100419.09;107978;1256;60468;-70
2024/04/05 05:01:01;;;;;;;53.70;26.60;;;;;;;18.47;33.30;100419.85;107850;1253;60325;-68
2024/04/05 05:03:28;;;;;;;50.00;25.60;;;;;;;18.91;32.48;100418.41;107970;1253;73840;-67
2024/04/05 05:05:59;;;;;;;;;;;;;;;19.43;32.20;100422.14;107942;1253;70318;-68
2024/04/05 05:08:28;;;;;;;44.60;21.70;;;;;;;20.07;31.28;100423.76;107929;1256;72832;-69
2024/04/05 05:10:55;;;;;;;57.10;23.10;;;;;;;20.59;30.38;100422.67;107937;1253;60088;-68
2024/04/05 05:13:22;;;;;;;32.00;17.50;;;;;;;20.80;29.42;100418.41;107915;1253;60337;-68
2024/04/05 05:15:49;;;;;;;29.70;16.40;;;;;;;20.64;28.90;100424.23;107913;1253;71611;-68
2024/04/05 05:18:17;;;;;;;32.70;16.00;;;;;;;20.75;28.93;100423.61;107912;1253;68841;-70
2024/04/05 05:20:48;;;;;;;30.90;15.90;;;;;;;20.87;28.66;100424.51;107922;1254;72599;-70
2024/04/05 05:23:15;;;;;;;24.90;15.90;;;;;;;20.89;27.72;100423.29;107947;1253;60440;-68
2024/04/05 05:25:43;;;;;;;27.20;15.90;;;;;;;20.91;28.05;100427.23;107885;1253;60601;-68
2024/04/05 05:28:11;;;;;;;19.30;12.30;;;;;;;20.71;27.49;100432.27;107917;1254;73932;-68
2024/04/05 05:30:38;;;;;;;16.20;10.30;;;;;;;19.91;27.87;100430.75;107931;1253;70478;-68
2024/04/05 05:33:07;;;;;;;13.00;8.30;;;;;;;19.40;28.63;100438.19;107860;1253;72657;-68
2024/04/05 05:35:35;;;;;;;16.50;8.80;;;;;;;19.28;28.89;100441.50;107905;1256;60348;-69
2024/04/05 05:38:03;;;;;;;17.50;9.20;;;;;;;19.06;29.50;100441.77;107785;1254;62232;-68
2024/04/05 05:40:31;;;;;;;13.70;8.80;;;;;;;19.01;29.67;100439.57;107871;1254;71473;-69
2024/04/05 05:42:58;;;;;;;14.10;9.10;;;;;;;19.30;29.71;100436.41;107834;1259;69997;-69
2024/04/05 05:45:25;;;;;;;17.80;8.10;;;;;;;19.90;29.15;100429.95;107816;1254;72705;-69
2024/04/05 05:47:53;;;;;;;13.00;7.50;;;;;;;20.45;28.33;100430.05;107838;1254;60553;-70
2024/04/05 05:50:21;;;;;;;11.10;6.50;;;;;;;20.96;27.51;100430.02;107904;1254;61069;-67
2024/04/05 05:52:49;;;;;;;13.40;7.20;;;;;;;21.08;26.99;100435.02;107852;1259;72927;-67
2024/04/05 05:55:16;;;;;;;13.80;6.80;;;;;;;21.11;26.52;100433.20;107894;1254;70446;-69
2024/04/05 05:57:44;;;;;;;13.50;7.10;;;;;;;21.12;26.47;100433.80;107845;1256;71836;-68
2024/04/05 06:00:12;;;;;;;13.50;7.10;;;;;;;21.18;26.54;100432.71;107834;1254;60970;-69
2024/04/05 06:02:40;;;;;;;14.10;7.40;;;;;;;21.27;26.38;100430.17;107697;1254;61023;-69
2024/04/05 06:05:09;;;;;;;11.20;7.00;;;;;;;21.39;26.23;100432.81;107841;1254;74729;-68
2024/04/05 06:07:37;;;;;;;11.60;6.70;;;;;;;21.48;25.94;100437.66;107803;1254;71812;-69
2024/04/05 06:10:05;;;;;;;10.30;6.30;;;;;;;21.54;25.88;100432.80;107847;1254;71575;-69
2024/04/05 06:12:35;;;;;;;7.80;4.90;;;;;;;21.49;25.65;100430.27;107739;1254;61231;-67
2024/04/05 06:15:04;;;;;;;6.20;4.40;;;;;;;21.50;25.30;100429.91;107806;1255;61382;-70
2024/04/05 06:17:35;;;;;;;6.10;3.80;;;;;;;21.34;25.58;100431.08;107814;1254;77032;-68
2024/04/05 06:20:06;;;;;;;5.80;3.50;;;;;;;21.28;25.68;100433.70;107843;1254;69674;-69
2024/04/05 06:22:33;;;;;;;;;;;;;;;21.42;25.74;100434.02;107876;1254;73006;-69
2024/04/05 06:25:01;;;;;;;7.60;4.50;;;;;;;21.51;25.73;100433.51;107814;1254;61218;-69
2024/04/05 06:27:28;;;;;;;8.20;5.10;;;;;;;21.29;26.05;100429.48;107924;1254;62024;-69
2024/04/05 06:29:56;;;;;;;6.80;4.20;;;;;;;21.04;26.16;100428.05;107746;1254;75130;-68
2024/04/05 06:32:23;;;;;;;6.50;4.10;;;;;;;20.69;26.56;100429.60;107853;1254;69306;-69
2024/04/05 06:34:51;;;;;;;6.70;3.80;;;;;;;20.85;26.60;100429.80;107734;1256;70904;-69
2024/04/05 06:37:19;;;;;;;7.20;4.20;;;;;;;21.03;26.55;100432.58;107950;1256;61222;-69
2024/04/05 06:39:46;;;;;;;8.10;4.10;;;;;;;21.12;26.41;100429.53;107959;1253;62151;-69
2024/04/05 06:42:13;;;;;;;6.30;4.20;;;;;;;20.61;26.76;100432.24;107892;1253;75242;-68
2024/04/05 06:44:41;;;;;;;5.30;4.00;;;;;;;20.24;27.55;100431.92;107943;1253;70670;-69
2024/04/05 06:47:09;;;;;;;5.70;4.40;;;;;;;20.08;27.65;100430.05;107859;1255;73446;-70
2024/04/05 06:49:37;;;;;;;8.90;4.50;;;;;;;19.59;28.37;100431.41;107965;1254;62263;-69
2024/04/05 06:52:05;;;;;;;12.50;5.30;;;;;;;19.29;28.99;100432.36;107905;1253;62392;-70
2024/04/05 06:54:43;;;;;;;6.50;4.40;;;;;;;19.71;28.73;100435.35;107973;1253;75080;-69
2024/04/05 06:57:11;;;;;;;10.80;5.90;;;;;;;19.99;28.60;100433.95;107945;1253;69522;-70
2024/04/05 06:59:38;;;;;;;8.60;5.70;;;;;;;20.29;28.16;100425.31;107917;1254;73637;-69
2024/04/05 07:02:06;;;;;;;14.20;6.20;;;;;;;20.42;27.85;100427.94;107932;1259;61110;-69
2024/04/05 07:04:37;;;;;;;11.60;5.80;;;;;;;20.68;27.73;100424.30;107947;1253;62332;-70
2024/04/05 07:07:04;;;;;;;7.80;5.40;;;;;;;20.98;27.22;100421.36;107920;1253;73853;-68
2024/04/05 07:09:32;;;;;;;10.80;5.60;;;;;;;21.35;27.07;100423.91;107829;1253;70533;-69
2024/04/05 07:12:02;;;;;;;8.40;5.30;;;;;;;21.49;26.77;100423.87;107880;1253;73446;-69
2024/04/05 07:14:29;;;;;;;7.30;5.30;;;;;;;21.56;26.46;100424.43;107899;1254;61228;-68
2024/04/05 07:16:57;;;;;;;8.30;5.50;;;;;;;21.97;26.34;100427.21;107916;1253;61075;-67
2024/04/05 07:19:25;;;;;;;7.70;5.10;;;;;;;22.87;25.58;100427.79;108002;1259;76980;-69
2024/04/05 07:21:52;;;;;;;7.80;5.00;;;;;;;23.42;24.40;100425.23;107963;1253;69237;-68
2024/04/05 07:24:21;;;;;;;6.00;4.70;;;;;;;23.54;24.41;100432.13;107994;1254;73773;-69
2024/04/05 07:26:48;;;;;;;7.00;4.50;;;;;;;23.55;24.11;100433.44;107891;1253;62462;-70
2024/04/05 07:29:16;;;;;;;7.80;5.20;;;;;;;23.69;24.02;100436.02;107926;1253;61094;-69
2024/04/05 07:31:46;;;;;;;11.60;5.20;;;;;;;23.85;23.62;100433.96;107929;1254;75140;-69
2024/04/05 07:34:15;;;;;;;6.40;4.70;;;;;;;24.22;23.53;100431.75;107893;1253;72613;-69
2024/04/05 07:36:44;;;;;;;7.10;5.20;;;;;;;24.45;22.95;100430.72;107852;1256;72293;-67
2024/04/05 07:39:12;;;;;;;8.20;4.70;;;;;;;24.32;22.92;100426.14;107905;1256;61218;-69
2024/04/05 07:41:39;;;;;;;8.30;4.70;;;;;;;24.38;23.08;100423.08;107871;1254;62271;-68
2024/04/05 07:44:06;;;;;;;7.10;5.60;;;;;;;24.43;22.83;100421.24;107873;1254;76804;-68
2024/04/05 07:46:34;;;;;;;10.60;6.20;;;;;;;24.46;22.92;100420.98;107865;1256;70775;-69
2024/04/05 07:49:01;;;;;;;8.80;4.60;;;;;;;24.58;22.43;100413.45;107884;1256;71485;-69
2024/04/05 07:51:29;;;;;;;7.60;4.30;;;;;;;24.18;22.77;100415.23;107837;1256;61193;-69
2024/04/05 07:53:57;;;;;;;9.30;4.00;;;;;;;24.04;22.88;100420.09;107847;1254;60842;-68
2024/04/05 07:56:27;;;;;;;6.10;4.20;;;;;;;24.69;22.99;100417.94;107820;1256;74753;-70
2024/04/05 07:58:54;;;;;;;5.90;4.20;;;;;;;24.94;22.08;100417.66;107872;1254;71271;-69
2024/04/05 08:01:23;;;;;;;5.30;4.00;;;;;;;25.21;22.26;100418.00;107861;1254;72820;-69
2024/04/05 08:03:51;;;;;;;7.10;4.10;;;;;;;25.63;21.88;100415.15;107876;1254;61144;-69
2024/04/05 08:06:18;;;;;;;8.20;5.00;;;;;;;25.60;21.56;100420.47;108145;1251;61239;-70
2024/04/05 08:08:45;;;;;;;8.50;4.40;;;;;;;25.22;21.82;100423.02;108119;1256;75135;-70
2024/04/05 08:11:13;;;;;;;5.80;4.10;;;;;;;24.91;21.99;100420.98;108159;1252;71579;-69
2024/04/05 08:13:40;;;;;;;8.10;4.10;;;;;;;24.70;22.15;100424.94;108160;1251;72370;-69
2024/04/05 08:16:08;;;;;;;7.00;3.50;;;;;;;24.75;22.19;100418.91;108166;1251;61366;-69
2024/04/05 08:18:36;;;;;;;8.00;3.80;;;;;;;25.00;22.16;100414.03;108150;1251;61814;-70
2024/04/05 08:21:04;;;;;;;7.50;3.90;;;;;;;25.12;22.26;100413.26;108062;1257;76798;-69
2024/04/05 08:23:32;;;;;;;10.00;3.90;;;;;;;25.00;22.25;100410.46;108149;1251;71838;-70
2024/04/05 08:26:00;;;;;;;10.60;4.70;;;;;;;24.82;22.35;100402.25;108149;1251;72809;-68
2024/04/05 08:28:28;;;;;;;10.60;4.90;;;;;;;24.79;22.53;100411.33;108147;1251;61343;-69
2024/04/05 08:30:55;;;;;;;11.10;4.30;;;;;;;24.79;22.52;100414.05;108139;1257;61000;-69
2024/04/05 08:33:23;;;;;;;9.80;4.50;;;;;;;24.41;22.92;100410.50;108170;1251;74711;-69
2024/04/05 08:35:54;;;;;;;8.50;3.90;;;;;;;24.21;23.25;100401.02;108216;1256;72719;-67
2024/04/05 08:38:21;;;;;;;11.40;4.70;;;;;;;24.38;23.18;100400.89;108160;1251;73301;-70
2024/04/05 08:40:48;;;;;;;13.60;4.50;;;;;;;24.51;22.75;100394.29;108064;1250;62464;-69
2024/04/05 08:43:16;;;;;;;11.50;4.40;;;;;;;24.60;22.83;100398.22;108204;1250;61097;-70
2024/04/05 08:45:44;;;;;;;18.30;4.90;;;;;;;24.61;22.60;100402.02;108177;1250;74751;-69
2024/04/05 08:48:12;;;;;;;12.90;4.70;;;;;;;24.66;22.83;100406.61;108181;1250;70627;-71
2024/04/05 08:50:39;;;;;;;15.70;5.10;;;;;;;24.95;22.69;100404.11;108007;1252;71149;-68
2024/04/05 08:53:08;;;;;;;10.60;5.00;;;;;;;25.37;22.49;100405.10;108209;1250;61169;-69
2024/04/05 08:55:37;;;;;;;12.20;4.90;;;;;;;25.80;21.77;100403.80;108220;1250;61208;-69
2024/04/05 08:58:06;;;;;;;8.20;4.40;;;;;;;25.92;21.68;100406.59;108202;1250;76275;-70
2024/04/05 09:00:33;;;;;;;7.50;3.60;;;;;;;25.79;21.57;100397.61;108190;1257;71266;-69
2024/04/05 09:03:01;;;;;;;13.90;4.50;;;;;;;25.85;21.65;100395.98;108218;1250;72970;-69
2024/04/05 09:05:29;;;;;;;13.80;5.80;;;;;;;25.92;21.76;100394.23;108189;1250;60406;-69
2024/04/05 09:08:06;;;;;;;13.50;4.40;;;;;;;25.69;21.91;100390.80;108160;1256;60238;-68
2024/04/05 09:10:34;;;;;;;8.60;3.70;;;;;;;25.59;21.60;100392.00;108147;1250;75243;-70
2024/04/05 09:13:04;;;;;;;12.90;4.50;;;;;;;25.60;21.46;100387.42;108192;1250;69733;-70
2024/04/05 09:15:32;;;;;;;12.40;4.90;;;;;;;25.55;21.45;100385.38;108195;1253;73038;-71
2024/04/05 09:17:59;;;;;;;13.70;4.20;;;;;;;25.48;21.49;100378.11;108127;1256;61133;-70
2024/04/05 09:20:29;;;;;;;13.10;4.60;;;;;;;25.50;21.48;100378.06;108185;1250;61209;-69
2024/04/05 09:23:04;;;;;;;11.30;4.30;;;;;;;25.42;21.71;100375.31;108255;1250;74459;-69
2024/04/05 09:25:35;;;;;;;11.10;4.00;;;;;;;25.46;21.86;100378.45;108207;1250;71280;-68
2024/04/05 09:28:20;;;;;;;10.40;3.80;;;;;;;25.67;21.68;100375.41;108062;1253;72723;-68
2024/04/05 09:30:49;;;;;;;6.90;3.50;;;;;;;25.77;20.89;100381.29;108239;1250;61250;-69
2024/04/05 09:33:20;;;;;;;6.90;3.50;;;;;;;25.44;21.37;100376.38;108007;1250;61137;-70
2024/04/05 09:35:47;;;;;;;14.00;3.10;;;;;;;25.23;21.66;100374.58;108180;1256;74788;-68
2024/04/05 09:38:17;;;;;;;8.80;3.90;;;;;;;25.26;21.64;100374.85;108204;1250;70783;-69
2024/04/05 09:40:44;;;;;;;9.40;3.60;;;;;;;25.41;22.08;100376.10;108112;1257;72856;-70
2024/04/05 09:43:12;;;;;;;8.10;3.10;;;;;;;25.41;21.70;100376.08;107965;1252;60522;-69
2024/04/05 09:45:40;;;;;;;6.20;3.50;;;;;;;25.34;21.59;100372.42;108205;1250;61534;-70
2024/04/05 09:48:08;;;;;;;7.30;3.50;;;;;;;25.54;21.68;100371.05;107996;1250;76744;-70
2024/04/05 09:50:35;;;;;;;7.50;3.20;;;;;;;25.96;21.11;100370.09;108214;1250;70687;-70
2024/04/05 09:53:03;;;;;;;8.30;3.50;;;;;;;26.24;21.21;100371.11;108234;1250;74953;-70
2024/04/05 09:55:37;;;;;;;8.80;3.60;;;;;;;26.42;20.42;100368.90;108250;1253;62155;-70
2024/04/05 09:58:07;;;;;;;6.50;3.00;;;;;;;26.39;20.55;100365.29;108221;1256;62221;-68
2024/04/05 10:00:36;;;;;;;7.30;3.20;;;;;;;26.37;20.24;100366.76;108109;1250;73673;-70
2024/04/05 10:03:05;;;;;;;9.00;3.00;;;;;;;26.03;20.31;100364.36;108213;1250;69990;-69
2024/04/05 10:05:32;;;;;;;5.10;3.00;;;;;;;25.99;20.42;100357.73;108282;1253;74923;-69
2024/04/05 10:08:10;;;;;;;8.10;3.50;;;;;;;25.87;20.43;100353.47;108236;1250;61456;-70
2024/04/05 10:10:38;;;;;;;6.00;2.90;;;;;;;25.75;20.83;100350.02;108313;1250;62662;-68
2024/04/05 10:13:15;;;;;;;6.90;3.10;;;;;;;25.74;20.59;100347.53;108230;1256;74758;-70
2024/04/05 10:15:56;;;;;;;10.80;3.10;;;;;;;25.82;20.75;100343.02;108262;1250;71238;-70
2024/04/05 10:18:27;;;;;;;;;;;;;;;26.00;20.78;100340.31;108321;1252;71416;-69
2024/04/05 10:21:13;;;;;;;10.50;3.70;;;;;;;26.00;20.62;100342.33;108186;1252;61211;-69
2024/04/05 10:23:44;;;;;;;11.00;3.50;;;;;;;25.60;20.89;100345.36;108214;1256;61129;-70
2024/04/05 10:26:17;;;;;;;5.90;3.20;;;;;;;25.70;21.02;100345.39;108227;1250;76056;-69
2024/04/05 10:28:44;;;;;;;6.90;2.70;;;;;;;25.97;21.07;100346.02;108204;1250;72663;-69
2024/04/05 10:31:18;;;;;;;6.70;2.60;;;;;;;26.20;20.83;100346.86;108179;1250;72450;-69
2024/04/05 10:33:46;;;;;;;6.50;3.10;;;;;;;26.26;20.82;100347.73;108095;1250;61226;-70
2024/04/05 10:36:13;;;;;;;8.00;2.90;;;;;;;26.38;20.63;100352.96;108108;1250;61091;-71
2024/04/05 10:38:43;;;;;;;5.60;2.50;;;;;;;26.08;20.81;100349.82;108066;1250;74334;-69
2024/04/05 10:41:18;;;;;;;6.00;2.80;;;;;;;26.10;20.77;100347.34;108159;1250;71257;-69
2024/04/05 10:43:46;;;;;;;5.70;2.60;;;;;;;26.14;20.46;100345.70;108192;1250;73881;-68
2024/04/05 10:46:16;;;;;;;7.30;2.80;;;;;;;25.86;20.44;100349.95;108205;1253;61596;-68
2024/04/05 10:48:43;;;;;;;5.50;2.70;;;;;;;25.77;20.61;100345.98;108204;1250;61235;-70
2024/04/05 10:51:13;;;;;;;7.50;2.70;;;;;;;25.75;20.53;100343.30;108215;1250;73453;-70
2024/04/05 10:53:41;;;;;;;10.10;2.70;;;;;;;25.84;20.63;100339.80;108243;1250;68910;-70
2024/04/05 10:56:08;;;;;;;12.10;3.30;;;;;;;25.89;20.77;100336.48;108165;1253;71160;-71
2024/04/05 10:58:37;;;;;;;11.40;2.90;;;;;;;25.93;20.70;100339.98;108191;1250;62369;-69
2024/04/05 11:01:04;;;;;;;4.60;2.70;;;;;;;25.99;20.61;100339.70;108088;1250;62400;-69
2024/04/05 11:03:32;;;;;;;5.60;2.60;;;;;;;25.98;20.55;100343.77;108186;1250;75079;-69
2024/04/05 11:06:04;;;;;;;4.80;2.70;;;;;;;26.03;20.47;100333.59;108191;1251;69481;-69
2024/04/05 11:08:32;;;;;;;5.70;2.90;;;;;;;26.54;20.37;100330.65;108196;1250;72353;-69
2024/04/05 11:10:59;;;;;;;5.90;3.40;;;;;;;26.80;19.77;100329.50;108063;1257;61241;-70
2024/04/05 11:13:29;;;;;;;11.90;3.10;;;;;;;26.79;19.75;100329.79;107967;1250;61067;-70
2024/04/05 11:16:02;;;;;;;5.20;3.00;;;;;;;26.55;19.91;100325.20;108098;1250;74745;-70
2024/04/05 11:18:37;;;;;;;10.30;2.70;;;;;;;26.44;19.78;100325.00;108202;1250;70820;-70